sensor_id;sensor_type;location;lat;lon;timestamp;temperature;humidity
16289;DHT22;26089;43.538;5.250;2022-08-19T00:00:18;19.70;99.90
16289;DHT22;26089;43.538;5.250;2022-08-19T00:02:45;19.90;99.90
16289;DHT22;26089;43.538;5.250;2022-08-19T00:05:14;20.00;99.90
16289;DHT22;26089;43.538;5.250;2022-08-19T00:07:41;20.20;99.90
16289;DHT22;26089;43.538;5.250;2022-08-19T00:10:10;20.40;99.90
16289;DHT22;26089;43.538;5.250;2022-08-19T00:12:38;20.60;99.90
16289;DHT22;26089;43.538;5.250;2022-08-19T00:15:07;20.80;99.90
16289;DHT22;26089;43.538;5.250;2022-08-19T00:17:39;20.90;99.90
16289;DHT22;26089;43.538;5.250;2022-08-19T00:20:08;20.90;99.90
16289;DHT22;26089;43.538;5.250;2022-08-19T00:22:36;20.80;99.90
16289;DHT22;26089;43.538;5.250;2022-08-19T00:25:04;20.90;99.90
16289;DHT22;26089;43.538;5.250;2022-08-19T00:27:31;20.90;99.90
16289;DHT22;26089;43.538;5.250;2022-08-19T00:30:00;21.00;99.90
16289;DHT22;26089;43.538;5.250;2022-08-19T00:32:29;21.00;99.90
16289;DHT22;26089;43.538;5.250;2022-08-19T00:34:56;21.00;99.90
16289;DHT22;26089;43.538;5.250;2022-08-19T00:37:24;21.00;99.90
16289;DHT22;26089;43.538;5.250;2022-08-19T00:39:52;21.00;99.90
16289;DHT22;26089;43.538;5.250;2022-08-19T00:42:22;20.90;99.90
16289;DHT22;26089;43.538;5.250;2022-08-19T00:44:49;20.80;99.90
16289;DHT22;26089;43.538;5.250;2022-08-19T00:47:18;20.80;99.90
16289;DHT22;26089;43.538;5.250;2022-08-19T00:49:48;20.70;99.90
16289;DHT22;26089;43.538;5.250;2022-08-19T00:52:21;20.70;99.90
16289;DHT22;26089;43.538;5.250;2022-08-19T00:54:50;20.70;99.90
16289;DHT22;26089;43.538;5.250;2022-08-19T00:57:23;20.80;99.90
16289;DHT22;26089;43.538;5.250;2022-08-19T00:59:55;20.80;99.90
16289;DHT22;26089;43.538;5.250;2022-08-19T01:02:25;20.80;99.90
16289;DHT22;26089;43.538;5.250;2022-08-19T01:04:53;20.80;99.90
16289;DHT22;26089;43.538;5.250;2022-08-19T01:07:20;20.70;99.90
16289;DHT22;26089;43.538;5.250;2022-08-19T01:09:47;20.70;99.90
16289;DHT22;26089;43.538;5.250;2022-08-19T01:12:14;20.60;99.90
16289;DHT22;26089;43.538;5.250;2022-08-19T01:14:42;20.60;99.90
16289;DHT22;26089;43.538;5.250;2022-08-19T01:17:11;20.60;99.90
16289;DHT22;26089;43.538;5.250;2022-08-19T01:19:41;20.60;99.90
16289;DHT22;26089;43.538;5.250;2022-08-19T01:22:14;20.60;99.90
16289;DHT22;26089;43.538;5.250;2022-08-19T01:24:43;20.60;99.90
16289;DHT22;26089;43.538;5.250;2022-08-19T01:27:10;20.50;99.90
16289;DHT22;26089;43.538;5.250;2022-08-19T01:29:39;20.50;99.90
16289;DHT22;26089;43.538;5.250;2022-08-19T01:32:10;20.50;99.90
16289;DHT22;26089;43.538;5.250;2022-08-19T01:34:38;20.60;99.90
16289;DHT22;26089;43.538;5.250;2022-08-19T01:37:06;20.60;99.90
16289;DHT22;26089;43.538;5.250;2022-08-19T01:39:38;20.50;99.90
16289;DHT22;26089;43.538;5.250;2022-08-19T01:42:08;20.60;99.90
16289;DHT22;26089;43.538;5.250;2022-08-19T01:44:36;20.60;99.90
16289;DHT22;26089;43.538;5.250;2022-08-19T01:47:04;20.70;99.90
16289;DHT22;26089;43.538;5.250;2022-08-19T01:49:32;20.70;99.90
16289;DHT22;26089;43.538;5.250;2022-08-19T01:52:00;20.70;99.90
16289;DHT22;26089;43.538;5.250;2022-08-19T01:54:27;20.70;99.90
16289;DHT22;26089;43.538;5.250;2022-08-19T01:56:59;20.70;99.90
16289;DHT22;26089;43.538;5.250;2022-08-19T01:59:28;20.60;99.90
16289;DHT22;26089;43.538;5.250;2022-08-19T02:01:56;20.60;99.90
16289;DHT22;26089;43.538;5.250;2022-08-19T02:04:23;20.70;99.90
16289;DHT22;26089;43.538;5.250;2022-08-19T02:06:51;20.60;99.90
16289;DHT22;26089;43.538;5.250;2022-08-19T02:09:18;20.60;99.90
16289;DHT22;26089;43.538;5.250;2022-08-19T02:11:45;20.60;99.90
16289;DHT22;26089;43.538;5.250;2022-08-19T02:14:12;20.60;99.90
16289;DHT22;26089;43.538;5.250;2022-08-19T02:16:40;20.60;99.90
16289;DHT22;26089;43.538;5.250;2022-08-19T02:19:08;20.50;99.90
16289;DHT22;26089;43.538;5.250;2022-08-19T02:21:36;20.50;99.90
16289;DHT22;26089;43.538;5.250;2022-08-19T02:24:03;20.50;99.90
16289;DHT22;26089;43.538;5.250;2022-08-19T02:26:32;20.50;99.90
16289;DHT22;26089;43.538;5.250;2022-08-19T02:28:59;20.50;99.90
16289;DHT22;26089;43.538;5.250;2022-08-19T02:31:27;20.40;99.90
16289;DHT22;26089;43.538;5.250;2022-08-19T02:33:56;20.40;99.90
16289;DHT22;26089;43.538;5.250;2022-08-19T02:36:24;20.40;99.90
16289;DHT22;26089;43.538;5.250;2022-08-19T02:38:53;20.40;99.90
16289;DHT22;26089;43.538;5.250;2022-08-19T02:41:21;20.40;99.90
16289;DHT22;26089;43.538;5.250;2022-08-19T02:43:49;20.40;99.90
16289;DHT22;26089;43.538;5.250;2022-08-19T02:46:18;20.40;99.90
16289;DHT22;26089;43.538;5.250;2022-08-19T02:48:47;20.40;99.90
16289;DHT22;26089;43.538;5.250;2022-08-19T02:51:18;20.40;99.90
16289;DHT22;26089;43.538;5.250;2022-08-19T02:53:45;20.40;99.90
16289;DHT22;26089;43.538;5.250;2022-08-19T02:56:13;20.50;99.90
16289;DHT22;26089;43.538;5.250;2022-08-19T02:58:40;20.50;99.90
16289;DHT22;26089;43.538;5.250;2022-08-19T03:01:09;20.40;99.90
16289;DHT22;26089;43.538;5.250;2022-08-19T03:03:37;20.40;99.90
16289;DHT22;26089;43.538;5.250;2022-08-19T03:06:07;20.40;99.90
16289;DHT22;26089;43.538;5.250;2022-08-19T03:08:37;20.40;99.90
16289;DHT22;26089;43.538;5.250;2022-08-19T03:11:04;20.30;99.90
16289;DHT22;26089;43.538;5.250;2022-08-19T03:13:31;20.30;99.90
16289;DHT22;26089;43.538;5.250;2022-08-19T03:15:58;20.20;99.90
16289;DHT22;26089;43.538;5.250;2022-08-19T03:18:25;20.20;99.90
16289;DHT22;26089;43.538;5.250;2022-08-19T03:20:53;20.20;99.90
16289;DHT22;26089;43.538;5.250;2022-08-19T03:23:20;20.20;99.90
16289;DHT22;26089;43.538;5.250;2022-08-19T03:25:51;20.20;99.90
16289;DHT22;26089;43.538;5.250;2022-08-19T03:28:19;20.10;99.90
16289;DHT22;26089;43.538;5.250;2022-08-19T03:30:56;20.20;99.90
16289;DHT22;26089;43.538;5.250;2022-08-19T03:33:24;20.20;99.90
16289;DHT22;26089;43.538;5.250;2022-08-19T03:36:04;20.20;99.90
16289;DHT22;26089;43.538;5.250;2022-08-19T03:38:33;20.20;99.90
16289;DHT22;26089;43.538;5.250;2022-08-19T03:41:05;20.30;99.90
16289;DHT22;26089;43.538;5.250;2022-08-19T03:43:35;20.30;99.90
16289;DHT22;26089;43.538;5.250;2022-08-19T03:46:05;20.40;99.90
16289;DHT22;26089;43.538;5.250;2022-08-19T03:48:33;20.50;99.90
16289;DHT22;26089;43.538;5.250;2022-08-19T03:51:00;20.50;99.90
16289;DHT22;26089;43.538;5.250;2022-08-19T03:53:30;20.60;99.90
16289;DHT22;26089;43.538;5.250;2022-08-19T03:55:57;20.60;99.90
16289;DHT22;26089;43.538;5.250;2022-08-19T03:58:28;20.60;99.90
16289;DHT22;26089;43.538;5.250;2022-08-19T04:00:56;20.60;99.90
16289;DHT22;26089;43.538;5.250;2022-08-19T04:03:24;20.60;99.90
16289;DHT22;26089;43.538;5.250;2022-08-19T04:05:52;20.60;99.90
16289;DHT22;26089;43.538;5.250;2022-08-19T04:08:20;20.70;99.90
16289;DHT22;26089;43.538;5.250;2022-08-19T04:10:48;20.60;99.90
16289;DHT22;26089;43.538;5.250;2022-08-19T04:13:16;20.60;99.90
16289;DHT22;26089;43.538;5.250;2022-08-19T04:15:45;20.60;99.90
16289;DHT22;26089;43.538;5.250;2022-08-19T04:18:13;20.70;99.90
16289;DHT22;26089;43.538;5.250;2022-08-19T04:20:42;20.80;99.90
16289;DHT22;26089;43.538;5.250;2022-08-19T04:23:09;20.80;99.90
16289;DHT22;26089;43.538;5.250;2022-08-19T04:25:38;20.80;99.90
16289;DHT22;26089;43.538;5.250;2022-08-19T04:28:05;20.70;99.90
16289;DHT22;26089;43.538;5.250;2022-08-19T04:30:38;20.80;99.90
16289;DHT22;26089;43.538;5.250;2022-08-19T04:33:07;20.80;99.90
16289;DHT22;26089;43.538;5.250;2022-08-19T04:35:36;20.80;99.90
16289;DHT22;26089;43.538;5.250;2022-08-19T04:38:04;20.80;99.90
16289;DHT22;26089;43.538;5.250;2022-08-19T04:40:31;20.70;99.90
16289;DHT22;26089;43.538;5.250;2022-08-19T04:43:15;20.70;99.90
16289;DHT22;26089;43.538;5.250;2022-08-19T04:45:43;20.60;99.90
16289;DHT22;26089;43.538;5.250;2022-08-19T04:48:11;20.60;99.90
16289;DHT22;26089;43.538;5.250;2022-08-19T04:50:40;20.50;99.90
16289;DHT22;26089;43.538;5.250;2022-08-19T04:53:08;20.60;99.90
16289;DHT22;26089;43.538;5.250;2022-08-19T04:55:39;20.60;99.90
16289;DHT22;26089;43.538;5.250;2022-08-19T04:58:06;20.60;99.90
16289;DHT22;26089;43.538;5.250;2022-08-19T05:00:33;20.60;99.90
16289;DHT22;26089;43.538;5.250;2022-08-19T05:03:00;20.70;99.90
16289;DHT22;26089;43.538;5.250;2022-08-19T05:05:29;20.70;99.90
16289;DHT22;26089;43.538;5.250;2022-08-19T05:07:57;20.70;99.90
16289;DHT22;26089;43.538;5.250;2022-08-19T05:10:24;20.70;99.90
16289;DHT22;26089;43.538;5.250;2022-08-19T05:12:51;20.70;99.90
16289;DHT22;26089;43.538;5.250;2022-08-19T05:15:18;20.70;99.90
16289;DHT22;26089;43.538;5.250;2022-08-19T05:17:45;20.70;99.90
16289;DHT22;26089;43.538;5.250;2022-08-19T05:20:26;20.70;99.90
16289;DHT22;26089;43.538;5.250;2022-08-19T05:23:12;20.70;99.90
16289;DHT22;26089;43.538;5.250;2022-08-19T05:25:41;20.70;99.90
16289;DHT22;26089;43.538;5.250;2022-08-19T05:28:08;20.80;99.90
16289;DHT22;26089;43.538;5.250;2022-08-19T05:30:35;20.80;99.90
16289;DHT22;26089;43.538;5.250;2022-08-19T05:33:02;20.70;99.90
16289;DHT22;26089;43.538;5.250;2022-08-19T05:35:29;20.70;99.90
16289;DHT22;26089;43.538;5.250;2022-08-19T05:37:56;20.60;99.90
16289;DHT22;26089;43.538;5.250;2022-08-19T05:40:25;20.70;99.90
16289;DHT22;26089;43.538;5.250;2022-08-19T05:42:52;20.60;99.90
16289;DHT22;26089;43.538;5.250;2022-08-19T05:45:19;20.70;99.90
16289;DHT22;26089;43.538;5.250;2022-08-19T05:47:47;20.60;99.90
16289;DHT22;26089;43.538;5.250;2022-08-19T05:50:14;20.60;99.90
16289;DHT22;26089;43.538;5.250;2022-08-19T05:52:43;20.60;99.90
16289;DHT22;26089;43.538;5.250;2022-08-19T05:55:10;20.60;99.90
16289;DHT22;26089;43.538;5.250;2022-08-19T05:57:39;20.70;99.90
16289;DHT22;26089;43.538;5.250;2022-08-19T06:00:07;20.80;99.90
16289;DHT22;26089;43.538;5.250;2022-08-19T06:02:36;20.80;99.90
16289;DHT22;26089;43.538;5.250;2022-08-19T06:05:04;20.90;99.90
16289;DHT22;26089;43.538;5.250;2022-08-19T06:07:34;21.10;99.90
16289;DHT22;26089;43.538;5.250;2022-08-19T06:10:01;21.70;99.90
16289;DHT22;26089;43.538;5.250;2022-08-19T06:12:29;21.90;99.90
16289;DHT22;26089;43.538;5.250;2022-08-19T06:15:04;22.10;99.90
16289;DHT22;26089;43.538;5.250;2022-08-19T06:17:31;22.30;99.90
16289;DHT22;26089;43.538;5.250;2022-08-19T06:20:00;22.30;99.90
16289;DHT22;26089;43.538;5.250;2022-08-19T06:22:27;22.70;99.90
16289;DHT22;26089;43.538;5.250;2022-08-19T06:24:55;22.90;99.90
16289;DHT22;26089;43.538;5.250;2022-08-19T06:27:22;23.00;99.90
16289;DHT22;26089;43.538;5.250;2022-08-19T06:29:49;23.30;99.90
16289;DHT22;26089;43.538;5.250;2022-08-19T06:32:18;23.50;99.90
16289;DHT22;26089;43.538;5.250;2022-08-19T06:34:45;23.40;99.90
16289;DHT22;26089;43.538;5.250;2022-08-19T06:37:13;23.20;99.90
16289;DHT22;26089;43.538;5.250;2022-08-19T06:39:42;22.80;99.90
16289;DHT22;26089;43.538;5.250;2022-08-19T06:42:11;22.70;99.90
16289;DHT22;26089;43.538;5.250;2022-08-19T06:44:41;22.60;99.90
16289;DHT22;26089;43.538;5.250;2022-08-19T06:47:11;22.80;99.90
16289;DHT22;26089;43.538;5.250;2022-08-19T06:49:39;22.90;99.90
16289;DHT22;26089;43.538;5.250;2022-08-19T06:52:06;23.00;99.90
16289;DHT22;26089;43.538;5.250;2022-08-19T06:54:33;23.10;99.90
16289;DHT22;26089;43.538;5.250;2022-08-19T06:57:02;23.30;99.90
16289;DHT22;26089;43.538;5.250;2022-08-19T06:59:31;23.40;99.90
16289;DHT22;26089;43.538;5.250;2022-08-19T07:02:00;23.70;99.90
16289;DHT22;26089;43.538;5.250;2022-08-19T07:04:30;24.20;99.90
16289;DHT22;26089;43.538;5.250;2022-08-19T07:07:01;24.50;99.90
16289;DHT22;26089;43.538;5.250;2022-08-19T07:09:28;24.40;99.90
16289;DHT22;26089;43.538;5.250;2022-08-19T07:11:56;24.10;99.90
16289;DHT22;26089;43.538;5.250;2022-08-19T07:14:25;24.00;99.90
16289;DHT22;26089;43.538;5.250;2022-08-19T07:16:54;24.10;99.90
16289;DHT22;26089;43.538;5.250;2022-08-19T07:19:22;24.00;99.90
16289;DHT22;26089;43.538;5.250;2022-08-19T07:21:50;24.90;99.90
16289;DHT22;26089;43.538;5.250;2022-08-19T07:24:20;25.10;99.90
16289;DHT22;26089;43.538;5.250;2022-08-19T07:26:50;25.50;99.90
16289;DHT22;26089;43.538;5.250;2022-08-19T07:29:19;25.80;99.90
16289;DHT22;26089;43.538;5.250;2022-08-19T07:31:48;26.00;99.90
16289;DHT22;26089;43.538;5.250;2022-08-19T07:34:15;24.90;99.90
16289;DHT22;26089;43.538;5.250;2022-08-19T07:36:43;25.30;99.90
16289;DHT22;26089;43.538;5.250;2022-08-19T07:39:13;25.80;99.90
16289;DHT22;26089;43.538;5.250;2022-08-19T07:41:42;26.10;99.90
16289;DHT22;26089;43.538;5.250;2022-08-19T07:44:10;25.90;99.90
16289;DHT22;26089;43.538;5.250;2022-08-19T07:46:39;26.10;99.90
16289;DHT22;26089;43.538;5.250;2022-08-19T07:49:08;25.40;99.90
16289;DHT22;26089;43.538;5.250;2022-08-19T07:51:38;24.60;99.90
16289;DHT22;26089;43.538;5.250;2022-08-19T07:54:05;23.90;99.90
16289;DHT22;26089;43.538;5.250;2022-08-19T07:56:32;23.30;99.90
16289;DHT22;26089;43.538;5.250;2022-08-19T07:59:01;23.00;99.90
16289;DHT22;26089;43.538;5.250;2022-08-19T08:01:28;22.90;99.90
16289;DHT22;26089;43.538;5.250;2022-08-19T08:03:56;23.30;99.90
16289;DHT22;26089;43.538;5.250;2022-08-19T08:06:41;24.10;99.90
16289;DHT22;26089;43.538;5.250;2022-08-19T08:09:30;24.10;99.90
16289;DHT22;26089;43.538;5.250;2022-08-19T08:12:01;24.80;99.90
16289;DHT22;26089;43.538;5.250;2022-08-19T08:14:32;25.30;99.90
16289;DHT22;26089;43.538;5.250;2022-08-19T08:17:00;25.70;99.90
16289;DHT22;26089;43.538;5.250;2022-08-19T08:19:28;26.30;99.90
16289;DHT22;26089;43.538;5.250;2022-08-19T08:21:58;26.30;99.90
16289;DHT22;26089;43.538;5.250;2022-08-19T08:24:27;26.40;99.90
16289;DHT22;26089;43.538;5.250;2022-08-19T08:26:57;26.90;99.90
16289;DHT22;26089;43.538;5.250;2022-08-19T08:29:24;27.40;99.90
16289;DHT22;26089;43.538;5.250;2022-08-19T08:31:53;27.40;99.90
16289;DHT22;26089;43.538;5.250;2022-08-19T08:34:20;27.50;99.90
16289;DHT22;26089;43.538;5.250;2022-08-19T08:36:48;27.40;99.90
16289;DHT22;26089;43.538;5.250;2022-08-19T08:39:19;27.20;99.90
16289;DHT22;26089;43.538;5.250;2022-08-19T08:41:53;26.60;99.90
16289;DHT22;26089;43.538;5.250;2022-08-19T08:44:28;26.30;99.90
16289;DHT22;26089;43.538;5.250;2022-08-19T08:47:02;26.70;99.90
16289;DHT22;26089;43.538;5.250;2022-08-19T08:49:33;26.50;99.90
16289;DHT22;26089;43.538;5.250;2022-08-19T08:52:06;26.50;99.90
16289;DHT22;26089;43.538;5.250;2022-08-19T08:54:37;26.70;99.90
16289;DHT22;26089;43.538;5.250;2022-08-19T08:57:09;26.90;99.90
16289;DHT22;26089;43.538;5.250;2022-08-19T08:59:40;27.30;99.90
16289;DHT22;26089;43.538;5.250;2022-08-19T09:02:09;27.70;99.90
16289;DHT22;26089;43.538;5.250;2022-08-19T09:04:37;27.50;99.90
16289;DHT22;26089;43.538;5.250;2022-08-19T09:07:21;27.50;99.90
16289;DHT22;26089;43.538;5.250;2022-08-19T09:09:51;27.30;99.90
16289;DHT22;26089;43.538;5.250;2022-08-19T09:12:24;27.30;99.90
16289;DHT22;26089;43.538;5.250;2022-08-19T09:14:56;27.50;99.90
16289;DHT22;26089;43.538;5.250;2022-08-19T09:17:27;27.40;99.90
16289;DHT22;26089;43.538;5.250;2022-08-19T09:19:58;27.50;99.90
16289;DHT22;26089;43.538;5.250;2022-08-19T09:22:26;27.80;99.90
16289;DHT22;26089;43.538;5.250;2022-08-19T09:24:54;28.00;99.90
16289;DHT22;26089;43.538;5.250;2022-08-19T09:27:23;28.10;99.90
16289;DHT22;26089;43.538;5.250;2022-08-19T09:29:50;28.10;99.90
16289;DHT22;26089;43.538;5.250;2022-08-19T09:32:20;28.00;99.90
16289;DHT22;26089;43.538;5.250;2022-08-19T09:34:48;28.00;99.90
16289;DHT22;26089;43.538;5.250;2022-08-19T09:37:15;28.00;99.90
16289;DHT22;26089;43.538;5.250;2022-08-19T09:39:42;28.50;99.90
16289;DHT22;26089;43.538;5.250;2022-08-19T09:42:09;28.50;99.90
16289;DHT22;26089;43.538;5.250;2022-08-19T09:44:38;28.20;99.90
16289;DHT22;26089;43.538;5.250;2022-08-19T09:47:05;28.10;99.90
16289;DHT22;26089;43.538;5.250;2022-08-19T09:49:33;28.20;99.90
16289;DHT22;26089;43.538;5.250;2022-08-19T09:52:02;28.10;99.90
16289;DHT22;26089;43.538;5.250;2022-08-19T09:54:29;28.20;99.90
16289;DHT22;26089;43.538;5.250;2022-08-19T09:56:58;28.60;99.90
16289;DHT22;26089;43.538;5.250;2022-08-19T09:59:26;28.10;99.90
16289;DHT22;26089;43.538;5.250;2022-08-19T10:01:53;27.80;99.90
16289;DHT22;26089;43.538;5.250;2022-08-19T10:04:20;27.00;99.90
16289;DHT22;26089;43.538;5.250;2022-08-19T10:06:49;27.40;99.90
16289;DHT22;26089;43.538;5.250;2022-08-19T10:09:18;27.90;99.90
16289;DHT22;26089;43.538;5.250;2022-08-19T10:11:45;27.90;99.90
16289;DHT22;26089;43.538;5.250;2022-08-19T10:14:15;27.60;99.90
16289;DHT22;26089;43.538;5.250;2022-08-19T10:16:42;27.50;99.90
16289;DHT22;26089;43.538;5.250;2022-08-19T10:19:09;27.80;99.90
16289;DHT22;26089;43.538;5.250;2022-08-19T10:21:36;28.30;99.90
16289;DHT22;26089;43.538;5.250;2022-08-19T10:24:05;28.30;99.90
16289;DHT22;26089;43.538;5.250;2022-08-19T10:26:35;28.30;99.90
16289;DHT22;26089;43.538;5.250;2022-08-19T10:29:04;28.70;99.90
16289;DHT22;26089;43.538;5.250;2022-08-19T10:31:32;28.50;99.90
16289;DHT22;26089;43.538;5.250;2022-08-19T10:34:00;28.40;99.90
16289;DHT22;26089;43.538;5.250;2022-08-19T10:36:30;29.10;99.90
16289;DHT22;26089;43.538;5.250;2022-08-19T10:38:59;28.60;99.90
16289;DHT22;26089;43.538;5.250;2022-08-19T10:41:29;28.20;99.90
16289;DHT22;26089;43.538;5.250;2022-08-19T10:44:00;28.20;99.90
16289;DHT22;26089;43.538;5.250;2022-08-19T10:46:28;28.60;99.90
16289;DHT22;26089;43.538;5.250;2022-08-19T10:48:58;28.60;99.90
16289;DHT22;26089;43.538;5.250;2022-08-19T10:51:25;29.30;99.90
16289;DHT22;26089;43.538;5.250;2022-08-19T10:54:18;29.50;99.90
16289;DHT22;26089;43.538;5.250;2022-08-19T10:56:45;29.60;99.90
16289;DHT22;26089;43.538;5.250;2022-08-19T10:59:21;29.70;99.90
16289;DHT22;26089;43.538;5.250;2022-08-19T11:01:49;29.70;99.90
16289;DHT22;26089;43.538;5.250;2022-08-19T11:04:18;28.80;99.90
16289;DHT22;26089;43.538;5.250;2022-08-19T11:06:47;29.10;99.90
16289;DHT22;26089;43.538;5.250;2022-08-19T11:09:16;29.50;99.90
16289;DHT22;26089;43.538;5.250;2022-08-19T11:11:43;29.00;99.90
16289;DHT22;26089;43.538;5.250;2022-08-19T11:14:15;29.00;99.90
16289;DHT22;26089;43.538;5.250;2022-08-19T11:16:45;29.00;99.90
16289;DHT22;26089;43.538;5.250;2022-08-19T11:19:12;28.70;99.90
16289;DHT22;26089;43.538;5.250;2022-08-19T11:21:42;29.30;99.90
16289;DHT22;26089;43.538;5.250;2022-08-19T11:24:13;29.90;99.90
16289;DHT22;26089;43.538;5.250;2022-08-19T11:26:42;29.90;99.90
16289;DHT22;26089;43.538;5.250;2022-08-19T11:29:11;29.90;99.90
16289;DHT22;26089;43.538;5.250;2022-08-19T11:31:41;29.40;99.90
16289;DHT22;26089;43.538;5.250;2022-08-19T11:34:11;29.10;99.90
16289;DHT22;26089;43.538;5.250;2022-08-19T11:36:40;29.20;99.90
16289;DHT22;26089;43.538;5.250;2022-08-19T11:39:09;29.20;99.90
16289;DHT22;26089;43.538;5.250;2022-08-19T11:41:36;29.70;99.90
16289;DHT22;26089;43.538;5.250;2022-08-19T11:44:04;29.50;99.90
16289;DHT22;26089;43.538;5.250;2022-08-19T11:46:32;29.20;99.90
16289;DHT22;26089;43.538;5.250;2022-08-19T11:49:00;29.30;99.90
16289;DHT22;26089;43.538;5.250;2022-08-19T11:51:30;29.60;99.90
16289;DHT22;26089;43.538;5.250;2022-08-19T11:53:58;30.00;99.90
16289;DHT22;26089;43.538;5.250;2022-08-19T11:56:26;30.10;99.90
16289;DHT22;26089;43.538;5.250;2022-08-19T11:58:54;30.30;99.90
16289;DHT22;26089;43.538;5.250;2022-08-19T12:01:24;30.10;99.90
16289;DHT22;26089;43.538;5.250;2022-08-19T12:03:53;29.90;99.90
16289;DHT22;26089;43.538;5.250;2022-08-19T12:06:24;30.40;99.90
16289;DHT22;26089;43.538;5.250;2022-08-19T12:08:55;30.30;99.90
16289;DHT22;26089;43.538;5.250;2022-08-19T12:11:23;30.60;99.90
16289;DHT22;26089;43.538;5.250;2022-08-19T12:13:51;30.80;99.90
16289;DHT22;26089;43.538;5.250;2022-08-19T12:16:21;31.10;99.90
16289;DHT22;26089;43.538;5.250;2022-08-19T12:18:49;30.80;99.90
16289;DHT22;26089;43.538;5.250;2022-08-19T12:21:20;30.40;99.90
16289;DHT22;26089;43.538;5.250;2022-08-19T12:23:48;30.00;99.90
16289;DHT22;26089;43.538;5.250;2022-08-19T12:26:18;30.00;99.90
16289;DHT22;26089;43.538;5.250;2022-08-19T12:28:45;30.00;99.90
16289;DHT22;26089;43.538;5.250;2022-08-19T12:31:14;30.20;99.90
16289;DHT22;26089;43.538;5.250;2022-08-19T12:33:41;30.70;99.90
16289;DHT22;26089;43.538;5.250;2022-08-19T12:36:12;30.50;99.90
16289;DHT22;26089;43.538;5.250;2022-08-19T12:38:40;30.50;99.90
16289;DHT22;26089;43.538;5.250;2022-08-19T12:41:10;30.50;99.90
16289;DHT22;26089;43.538;5.250;2022-08-19T12:43:39;31.10;99.90
16289;DHT22;26089;43.538;5.250;2022-08-19T12:46:08;31.30;99.90
16289;DHT22;26089;43.538;5.250;2022-08-19T12:48:35;31.10;99.90
16289;DHT22;26089;43.538;5.250;2022-08-19T12:51:06;31.00;99.90
16289;DHT22;26089;43.538;5.250;2022-08-19T12:53:35;31.30;99.90
16289;DHT22;26089;43.538;5.250;2022-08-19T12:56:03;30.60;99.90
16289;DHT22;26089;43.538;5.250;2022-08-19T12:58:31;30.80;99.90
16289;DHT22;26089;43.538;5.250;2022-08-19T13:01:06;30.50;99.90
16289;DHT22;26089;43.538;5.250;2022-08-19T13:03:33;30.30;99.90
16289;DHT22;26089;43.538;5.250;2022-08-19T13:06:00;29.90;99.90
16289;DHT22;26089;43.538;5.250;2022-08-19T13:08:27;29.70;99.90
16289;DHT22;26089;43.538;5.250;2022-08-19T13:10:54;29.60;99.90
16289;DHT22;26089;43.538;5.250;2022-08-19T13:13:21;29.60;99.90
16289;DHT22;26089;43.538;5.250;2022-08-19T13:15:50;29.50;99.90
16289;DHT22;26089;43.538;5.250;2022-08-19T13:18:20;29.80;99.90
16289;DHT22;26089;43.538;5.250;2022-08-19T13:20:47;29.80;99.90
16289;DHT22;26089;43.538;5.250;2022-08-19T13:23:14;29.90;99.90
16289;DHT22;26089;43.538;5.250;2022-08-19T13:25:41;30.00;99.90
16289;DHT22;26089;43.538;5.250;2022-08-19T13:28:08;29.60;99.90
16289;DHT22;26089;43.538;5.250;2022-08-19T13:30:35;29.90;99.90
16289;DHT22;26089;43.538;5.250;2022-08-19T13:33:20;29.80;99.90
16289;DHT22;26089;43.538;5.250;2022-08-19T13:35:50;29.60;99.90
16289;DHT22;26089;43.538;5.250;2022-08-19T13:38:23;30.00;99.90
16289;DHT22;26089;43.538;5.250;2022-08-19T13:40:51;30.50;99.90
16289;DHT22;26089;43.538;5.250;2022-08-19T13:43:20;30.40;99.90
16289;DHT22;26089;43.538;5.250;2022-08-19T13:45:49;30.70;99.90
16289;DHT22;26089;43.538;5.250;2022-08-19T13:48:19;30.20;99.90
16289;DHT22;26089;43.538;5.250;2022-08-19T13:50:46;30.20;99.90
16289;DHT22;26089;43.538;5.250;2022-08-19T13:53:14;30.00;99.90
16289;DHT22;26089;43.538;5.250;2022-08-19T13:55:42;29.70;99.90
16289;DHT22;26089;43.538;5.250;2022-08-19T13:58:10;29.50;99.90
16289;DHT22;26089;43.538;5.250;2022-08-19T14:00:41;29.40;99.90
16289;DHT22;26089;43.538;5.250;2022-08-19T14:03:08;29.50;99.90
16289;DHT22;26089;43.538;5.250;2022-08-19T14:05:37;29.10;99.90
16289;DHT22;26089;43.538;5.250;2022-08-19T14:08:04;29.10;99.90
16289;DHT22;26089;43.538;5.250;2022-08-19T14:10:32;29.30;99.90
16289;DHT22;26089;43.538;5.250;2022-08-19T14:13:01;29.30;99.90
16289;DHT22;26089;43.538;5.250;2022-08-19T14:15:29;29.20;99.90
16289;DHT22;26089;43.538;5.250;2022-08-19T14:17:57;29.30;99.90
16289;DHT22;26089;43.538;5.250;2022-08-19T14:20:25;29.50;99.90
16289;DHT22;26089;43.538;5.250;2022-08-19T14:22:54;29.80;99.90
16289;DHT22;26089;43.538;5.250;2022-08-19T14:25:23;30.00;99.90
16289;DHT22;26089;43.538;5.250;2022-08-19T14:27:51;29.90;99.90
16289;DHT22;26089;43.538;5.250;2022-08-19T14:30:21;29.90;99.90
16289;DHT22;26089;43.538;5.250;2022-08-19T14:32:48;30.10;99.90
16289;DHT22;26089;43.538;5.250;2022-08-19T14:35:16;29.80;99.90
16289;DHT22;26089;43.538;5.250;2022-08-19T14:37:44;29.70;99.90
16289;DHT22;26089;43.538;5.250;2022-08-19T14:40:14;29.80;99.90
16289;DHT22;26089;43.538;5.250;2022-08-19T14:42:42;29.50;99.90
16289;DHT22;26089;43.538;5.250;2022-08-19T14:45:10;29.20;99.90
16289;DHT22;26089;43.538;5.250;2022-08-19T14:47:37;29.30;99.90
16289;DHT22;26089;43.538;5.250;2022-08-19T14:50:05;29.10;99.90
16289;DHT22;26089;43.538;5.250;2022-08-19T14:52:33;29.00;99.90
16289;DHT22;26089;43.538;5.250;2022-08-19T14:55:00;29.10;99.90
16289;DHT22;26089;43.538;5.250;2022-08-19T14:57:29;29.10;99.90
16289;DHT22;26089;43.538;5.250;2022-08-19T14:59:56;29.00;99.90
16289;DHT22;26089;43.538;5.250;2022-08-19T15:02:23;28.90;99.90
16289;DHT22;26089;43.538;5.250;2022-08-19T15:04:50;28.70;99.90
16289;DHT22;26089;43.538;5.250;2022-08-19T15:07:17;28.60;99.90
16289;DHT22;26089;43.538;5.250;2022-08-19T15:09:44;28.80;99.90
16289;DHT22;26089;43.538;5.250;2022-08-19T15:12:11;28.90;99.90
16289;DHT22;26089;43.538;5.250;2022-08-19T15:14:40;29.10;99.90
16289;DHT22;26089;43.538;5.250;2022-08-19T15:17:08;29.10;99.90
16289;DHT22;26089;43.538;5.250;2022-08-19T15:19:35;29.10;99.90
16289;DHT22;26089;43.538;5.250;2022-08-19T15:22:02;29.10;99.90
16289;DHT22;26089;43.538;5.250;2022-08-19T15:24:29;29.10;99.90
16289;DHT22;26089;43.538;5.250;2022-08-19T15:26:57;29.00;99.90
16289;DHT22;26089;43.538;5.250;2022-08-19T15:29:24;29.00;99.90
16289;DHT22;26089;43.538;5.250;2022-08-19T15:31:54;29.20;99.90
16289;DHT22;26089;43.538;5.250;2022-08-19T15:34:22;29.30;99.90
16289;DHT22;26089;43.538;5.250;2022-08-19T15:36:49;29.30;99.90
16289;DHT22;26089;43.538;5.250;2022-08-19T15:39:17;29.00;99.90